Terminal Aerodrome Forecast
Issued by NWS

Home | Current Version | Previous Version | Text Only | Print | Product List | Glossary On
Versions: 1 2 3 4 5 6 7 8 9 10 11 12 13 14 15 16 17 18 19
000
FTAK31 PAJN 022300
TAFAGY
TAF
PAGY 022320Z 0300/0324 20015G25KT P6SM BKN060
     FM030300 21010KT P6SM SCT015 BKN030 OVC050
     FM031200 21010G20KT P6SM VCSH BKN015 OVC025
     FM031700 21010KT P6SM VCSH BKN040 OVC060
      AMD LTD TO CLD VIS AND WIND=

USA.gov is the U.S. government's official web portal to all federal, state and local government web resources and services.